Monument Pass, CO

3:09 AM MDT on September 22, 2017 (GMT -0600)
Monument Pass

Weather History for KMNH - March, 2013

Change the Weather History Date:

Friday, March 22, 2013

  Actual Average Record
Temperature  
Mean Temperature 29 °F -  
Max Temperature 37 °F - 68 °F (2009)
Min Temperature 21 °F - 15 °F (2002)
Degree Days  
Heating Degree Days 36    
Month to date heating degree days  
Cooling Degree Days 0    
Month to date cooling degree days  
Moisture  
Dew Point 22 °F    
Average Humidity 80    
Maximum Humidity 100    
Minimum Humidity 48    
Precipitation  
Precipitation 0.01 in - 0.01 in (2013)
Sea Level Pressure  
Sea Level Pressure 29.74 in    
Wind  
Wind Speed 12 mph (SSE)    
Max Wind Speed 33 mph    
Max Gust Speed 44 mph    
Visibility 8 miles    
Events Snow    
T = Trace of Precipitation, MM = Missing Value Source: NWS Daily Summary

Daily Weather History Graph

Daily Weather History Graph

Search for Another Location

Airport or City:

Trip Planner

Search our weather history database for the weather conditions in past years. The results will help you decide how hot, cold, wet, or windy it might be!

Date:

Astronomy

Mar. 22, 2013 Rise Set
Actual Time 6:58 AM MDT 7:12 PM MDT
Civil Twilight 6:31 AM MDT 7:39 PM MDT
Nautical Twilight 6:00 AM MDT 8:10 PM MDT
Astronomical Twilight 5:28 AM MDT 8:42 PM MDT
Moon 2:44 PM MDT 3:58 AM MDT
Length of Visible Light 13h 07m
Length of Day
12h 14m
Waxing Gibbous, 78% of the Moon is Illuminated
Mar 22
Waxing Gibbous
Mar 27
Full
Apr 2
Last Quarter
Apr 10
New
Apr 18
First Quarter

Hourly Weather History & Observations

Time (MDT) Temp. Windchill Dew Point Humidity Pressure Visibility Wind Dir Wind Speed Gust Speed Precip Events Conditions
12:14 AM 23.0 °F - 23.0 °F 100% 29.81 in 10.0 mi Calm Calm - N/A   Clear
12:34 AM 23.0 °F 15.8 °F 19.4 °F 86% 29.81 in 10.0 mi SE 5.8 mph - N/A   Clear
12:54 AM 23.0 °F - 21.2 °F 93% 29.81 in 10.0 mi Calm Calm - N/A   Clear
1:14 AM 21.2 °F - 21.2 °F 100% 29.81 in 10.0 mi Calm Calm - N/A   Clear
1:34 AM 21.2 °F 14.9 °F 19.4 °F 93% 29.80 in 10.0 mi ESE 4.6 mph - N/A   Clear
1:54 AM 23.0 °F 12.4 °F 21.2 °F 93% 29.81 in 10.0 mi South 10.4 mph - N/A   Clear
2:14 AM 24.8 °F 16.1 °F 23.0 °F 93% 29.81 in 10.0 mi SSE 8.1 mph - N/A   Clear
2:34 AM 21.2 °F 14.9 °F 21.2 °F 100% 29.81 in 10.0 mi South 4.6 mph - N/A   Clear
2:54 AM 23.0 °F 14.7 °F 23.0 °F 100% 29.81 in 10.0 mi SSE 6.9 mph - N/A   Scattered Clouds
3:14 AM 24.8 °F 19.1 °F 23.0 °F 93% 29.81 in 10.0 mi SE 4.6 mph - N/A   Mostly Cloudy
3:34 AM 26.6 °F 19.1 °F 26.6 °F 100% 29.79 in 10.0 mi SE 6.9 mph - N/A   Mostly Cloudy
3:54 AM 23.0 °F 15.8 °F 23.0 °F 100% 29.78 in 10.0 mi ESE 5.8 mph - N/A   Scattered Clouds
4:14 AM 23.0 °F 15.8 °F 21.2 °F 93% 29.78 in 10.0 mi SE 5.8 mph - N/A   Mostly Cloudy
4:34 AM 26.6 °F 18.2 °F 24.8 °F 93% 29.78 in 10.0 mi ESE 8.1 mph - N/A   Overcast
4:53 AM 26.6 °F 18.2 °F 26.6 °F 100% 29.77 in 10.0 mi SE 8.1 mph - N/A   Overcast
5:14 AM 26.6 °F 20.0 °F 26.6 °F 100% 29.78 in 10.0 mi SE 5.8 mph - N/A   Overcast
5:34 AM 26.6 °F 19.1 °F 26.6 °F 100% 29.78 in 10.0 mi SE 6.9 mph - N/A   Overcast
5:54 AM 28.4 °F 20.4 °F 26.6 °F 93% 29.78 in 10.0 mi SSE 8.1 mph - N/A   Overcast
6:14 AM 28.4 °F 17.0 °F 26.6 °F 93% 29.78 in 10.0 mi South 15.0 mph - N/A   Overcast
6:34 AM 28.4 °F 18.5 °F 26.6 °F 93% 29.77 in 10.0 mi SSE 11.5 mph - N/A   Overcast
6:54 AM 28.4 °F 17.0 °F 26.6 °F 93% 29.78 in 10.0 mi South 15.0 mph - N/A   Overcast
7:14 AM 26.6 °F 16.8 °F 24.8 °F 93% 29.79 in 10.0 mi South 10.4 mph - N/A   Overcast
7:34 AM 26.6 °F 14.3 °F 26.6 °F 100% 29.79 in 10.0 mi SSE 16.1 mph - N/A   Overcast
7:54 AM 26.6 °F 15.2 °F 23.0 °F 86% 29.78 in 10.0 mi SSE 13.8 mph 20.7 mph N/A   Mostly Cloudy
8:14 AM 26.6 °F 15.7 °F 23.0 °F 86% 29.79 in 10.0 mi SSE 12.7 mph - N/A   Scattered Clouds
8:34 AM 26.6 °F 14.7 °F 24.8 °F 93% 29.78 in 10.0 mi SSE 15.0 mph - N/A   Mostly Cloudy
8:54 AM 28.4 °F 16.6 °F 23.0 °F 80% 29.78 in 10.0 mi South 16.1 mph 23.0 mph N/A   Scattered Clouds
9:14 AM 30.2 °F 18.1 °F 23.0 °F 75% 29.78 in 10.0 mi South 18.4 mph 24.2 mph N/A   Scattered Clouds
9:34 AM 30.2 °F 16.8 °F 23.0 °F 75% 29.76 in 10.0 mi South 23.0 mph 29.9 mph N/A   Scattered Clouds
9:54 AM 30.2 °F 16.5 °F 21.2 °F 69% 29.76 in 10.0 mi South 24.2 mph 31.1 mph N/A   Scattered Clouds
10:14 AM 32.0 °F 19.8 °F 21.2 °F 64% 29.76 in 10.0 mi South 20.7 mph 29.9 mph N/A   Clear
10:34 AM 32.0 °F 19.5 °F 21.2 °F 64% 29.74 in 10.0 mi South 21.9 mph 33.4 mph N/A   Clear
10:54 AM 32.0 °F 18.4 °F 19.4 °F 60% 29.74 in 10.0 mi South 26.5 mph 33.4 mph N/A   Clear
11:14 AM 33.8 °F 20.8 °F 19.4 °F 56% 29.73 in 10.0 mi South 26.5 mph 35.7 mph N/A   Clear
11:34 AM 33.8 °F 20.8 °F 19.4 °F 56% 29.71 in 10.0 mi South 26.5 mph 34.5 mph N/A   Clear
11:54 AM 33.8 °F 21.3 °F 21.2 °F 60% 29.71 in 10.0 mi South 24.2 mph 35.7 mph N/A   Clear
12:14 PM 35.6 °F 23.2 °F 19.4 °F 52% 29.69 in 10.0 mi South 26.5 mph 36.8 mph N/A   Clear
12:34 PM 35.6 °F 22.5 °F 19.4 °F 52% 29.67 in 10.0 mi South 29.9 mph 38.0 mph N/A   Clear
12:54 PM 37.4 °F 24.8 °F 19.4 °F 48% 29.67 in 10.0 mi South 31.1 mph 38.0 mph N/A   Clear
1:13 PM 37.4 °F 24.8 °F 19.4 °F 48% 29.65 in 10.0 mi South 31.1 mph 39.1 mph N/A   Clear
1:34 PM 37.4 °F 24.6 °F 21.2 °F 52% 29.64 in 10.0 mi South 32.2 mph 41.4 mph N/A   Clear
1:54 PM 37.4 °F 24.6 °F 19.4 °F 48% 29.62 in 10.0 mi South 32.2 mph 38.0 mph N/A   Clear
2:14 PM 37.4 °F 24.4 °F 19.4 °F 48% 29.60 in 10.0 mi SSE 33.4 mph 43.7 mph N/A   Clear
2:34 PM 35.6 °F 22.5 °F 17.6 °F 48% 29.60 in 10.0 mi SSE 29.9 mph 40.3 mph N/A   Clear
2:54 PM 35.6 °F 22.7 °F 17.6 °F 48% 29.59 in 10.0 mi SSE 28.8 mph 36.8 mph N/A   Scattered Clouds
3:14 PM 35.6 °F 23.7 °F 19.4 °F 52% 29.60 in 10.0 mi SSE 24.2 mph 32.2 mph N/A   Mostly Cloudy
3:34 PM 37.4 °F 25.9 °F 19.4 °F 48% 29.59 in 10.0 mi South 25.3 mph 33.4 mph N/A   Mostly Cloudy
3:54 PM 37.4 °F 25.9 °F 19.4 °F 48% 29.59 in 10.0 mi South 25.3 mph 35.7 mph N/A   Mostly Cloudy
4:14 PM 35.6 °F 23.7 °F 19.4 °F 52% 29.59 in 10.0 mi South 24.2 mph 31.1 mph N/A   Overcast
4:34 PM 37.4 °F 26.9 °F 19.4 °F 48% 29.60 in 10.0 mi South 20.7 mph 31.1 mph N/A   Overcast
4:54 PM 37.4 °F 28.5 °F 19.4 °F 48% 29.60 in 10.0 mi South 15.0 mph 23.0 mph N/A   Overcast
5:14 PM 37.4 °F 28.5 °F 19.4 °F 48% 29.61 in 10.0 mi SSW 15.0 mph 24.2 mph N/A   Overcast
5:34 PM 33.8 °F 21.3 °F 21.2 °F 60% 29.63 in 10.0 mi WNW 24.2 mph 28.8 mph N/A   Overcast
5:54 PM 32.0 °F 20.1 °F 23.0 °F 69% 29.66 in 10.0 mi NW 19.6 mph 27.6 mph N/A   Overcast
6:14 PM 32.0 °F 18.4 °F 23.0 °F 69% 29.68 in 10.0 mi NW 26.5 mph 29.9 mph N/A   Overcast
6:34 PM 28.4 °F 15.1 °F 26.6 °F 93% 29.70 in 10.0 mi NW 20.7 mph 27.6 mph N/A   Overcast
6:54 PM 26.6 °F 12.4 °F 26.6 °F 100% 29.71 in 0.2 mi NW 21.9 mph 26.5 mph N/A Snow Light Snow
7:14 PM 26.6 °F 13.1 °F 26.6 °F 100% 29.72 in 0.2 mi NW 19.6 mph 25.3 mph N/A Snow Light Snow
7:34 PM 26.6 °F 13.1 °F 26.6 °F 100% 29.73 in 0.2 mi NNW 19.6 mph 25.3 mph N/A Snow Heavy Snow
7:54 PM 24.8 °F 11.1 °F 24.8 °F 100% 29.74 in 5.0 mi NNW 18.4 mph 26.5 mph N/A Snow Light Snow
8:14 PM 24.8 °F 12.4 °F 23.0 °F 93% 29.76 in 4.0 mi NNW 15.0 mph 23.0 mph N/A Snow Light Snow
8:34 PM 23.0 °F 9.2 °F 23.0 °F 100% 29.76 in 5.0 mi North 17.3 mph 25.3 mph N/A Snow Light Snow
8:54 PM 23.0 °F 10.1 °F 23.0 °F 100% 29.76 in 3.0 mi North 15.0 mph 18.4 mph N/A Snow Light Snow
9:14 PM 23.0 °F 9.2 °F 21.2 °F 93% 29.77 in 5.0 mi NNE 17.3 mph - N/A Snow Light Snow
9:34 PM 23.0 °F 9.6 °F 21.2 °F 93% 29.78 in 7.0 mi NNE 16.1 mph 24.2 mph N/A   Overcast
9:54 PM 23.0 °F 10.6 °F 21.2 °F 93% 29.78 in 10.0 mi NNE 13.8 mph 21.9 mph N/A   Overcast
10:14 PM 23.0 °F 9.6 °F 21.2 °F 93% 29.79 in 5.0 mi NNE 16.1 mph 19.6 mph N/A Snow Light Snow
10:34 PM 21.2 °F 7.8 °F 21.2 °F 100% 29.79 in 3.0 mi NNE 15.0 mph 20.7 mph N/A Snow Light Snow
10:54 PM 21.2 °F 8.3 °F 21.2 °F 100% 29.81 in 2.0 mi NNE 13.8 mph - N/A Snow Light Snow
11:14 PM 21.2 °F 8.3 °F 21.2 °F 100% 29.81 in 1.8 mi NNE 13.8 mph - N/A Snow Light Snow
11:34 PM 21.2 °F 8.9 °F 19.4 °F 93% 29.81 in 1.0 mi NNE 12.7 mph - N/A Snow Snow
11:54 PM 21.2 °F 11.7 °F 19.4 °F 93% 29.81 in 1.0 mi NNE 8.1 mph - 0.01 in Snow Snow